sensor_id;sensor_type;location;lat;lon;timestamp;P1;durP1;ratioP1;P2;durP2;ratioP2
37309;SDS011;23195;47.744;7.358;2023-02-27T00:01:32;1.60;;;1.30;;
37309;SDS011;23195;47.744;7.358;2023-02-27T00:03:59;2.83;;;1.47;;
37309;SDS011;23195;47.744;7.358;2023-02-27T00:06:28;1.53;;;1.30;;
37309;SDS011;23195;47.744;7.358;2023-02-27T00:08:55;2.80;;;1.40;;
37309;SDS011;23195;47.744;7.358;2023-02-27T00:11:20;2.23;;;1.23;;
37309;SDS011;23195;47.744;7.358;2023-02-27T00:13:46;2.27;;;1.30;;
37309;SDS011;23195;47.744;7.358;2023-02-27T00:16:12;2.90;;;1.70;;
37309;SDS011;23195;47.744;7.358;2023-02-27T00:18:38;2.13;;;1.30;;
37309;SDS011;23195;47.744;7.358;2023-02-27T00:21:04;2.43;;;1.50;;
37309;SDS011;23195;47.744;7.358;2023-02-27T00:23:30;3.63;;;1.50;;
37309;SDS011;23195;47.744;7.358;2023-02-27T00:25:55;3.40;;;1.60;;
37309;SDS011;23195;47.744;7.358;2023-02-27T00:28:21;3.37;;;1.37;;
37309;SDS011;23195;47.744;7.358;2023-02-27T00:30:47;3.33;;;1.40;;
37309;SDS011;23195;47.744;7.358;2023-02-27T00:33:13;1.93;;;1.23;;
37309;SDS011;23195;47.744;7.358;2023-02-27T00:35:39;1.80;;;1.17;;
37309;SDS011;23195;47.744;7.358;2023-02-27T00:38:05;1.70;;;1.33;;
37309;SDS011;23195;47.744;7.358;2023-02-27T00:40:30;4.70;;;1.40;;
37309;SDS011;23195;47.744;7.358;2023-02-27T00:42:59;3.23;;;1.70;;
37309;SDS011;23195;47.744;7.358;2023-02-27T00:45:26;2.20;;;1.10;;
37309;SDS011;23195;47.744;7.358;2023-02-27T00:47:51;2.73;;;1.50;;
37309;SDS011;23195;47.744;7.358;2023-02-27T00:50:18;4.13;;;1.37;;
37309;SDS011;23195;47.744;7.358;2023-02-27T00:52:43;2.57;;;1.30;;
37309;SDS011;23195;47.744;7.358;2023-02-27T00:55:09;2.43;;;1.40;;
37309;SDS011;23195;47.744;7.358;2023-02-27T00:57:35;3.13;;;1.17;;
37309;SDS011;23195;47.744;7.358;2023-02-27T01:00:03;2.33;;;1.33;;
37309;SDS011;23195;47.744;7.358;2023-02-27T01:02:30;2.03;;;1.30;;
37309;SDS011;23195;47.744;7.358;2023-02-27T01:04:56;3.97;;;1.60;;
37309;SDS011;23195;47.744;7.358;2023-02-27T01:07:22;4.10;;;1.50;;
37309;SDS011;23195;47.744;7.358;2023-02-27T01:09:53;1.37;;;1.13;;
37309;SDS011;23195;47.744;7.358;2023-02-27T01:12:19;2.67;;;1.50;;
37309;SDS011;23195;47.744;7.358;2023-02-27T01:14:45;1.80;;;1.50;;
37309;SDS011;23195;47.744;7.358;2023-02-27T01:17:11;3.50;;;1.40;;
37309;SDS011;23195;47.744;7.358;2023-02-27T01:19:37;1.87;;;1.33;;
37309;SDS011;23195;47.744;7.358;2023-02-27T01:22:03;3.93;;;1.57;;
37309;SDS011;23195;47.744;7.358;2023-02-27T01:24:29;2.53;;;1.57;;
37309;SDS011;23195;47.744;7.358;2023-02-27T01:26:55;2.00;;;1.37;;
37309;SDS011;23195;47.744;7.358;2023-02-27T01:29:20;3.00;;;1.53;;
37309;SDS011;23195;47.744;7.358;2023-02-27T01:31:46;4.90;;;1.80;;
37309;SDS011;23195;47.744;7.358;2023-02-27T01:34:13;2.00;;;1.60;;
37309;SDS011;23195;47.744;7.358;2023-02-27T01:36:39;3.63;;;1.70;;
37309;SDS011;23195;47.744;7.358;2023-02-27T01:39:04;2.63;;;1.60;;
37309;SDS011;23195;47.744;7.358;2023-02-27T01:41:30;5.93;;;1.80;;
37309;SDS011;23195;47.744;7.358;2023-02-27T01:43:57;2.23;;;1.60;;
37309;SDS011;23195;47.744;7.358;2023-02-27T01:46:24;3.63;;;1.70;;
37309;SDS011;23195;47.744;7.358;2023-02-27T01:48:51;2.73;;;1.70;;
37309;SDS011;23195;47.744;7.358;2023-02-27T01:51:20;3.30;;;1.63;;
37309;SDS011;23195;47.744;7.358;2023-02-27T01:53:47;4.87;;;1.70;;
37309;SDS011;23195;47.744;7.358;2023-02-27T01:56:16;2.23;;;1.60;;
37309;SDS011;23195;47.744;7.358;2023-02-27T01:58:45;2.83;;;1.80;;
37309;SDS011;23195;47.744;7.358;2023-02-27T02:01:12;1.93;;;1.53;;
37309;SDS011;23195;47.744;7.358;2023-02-27T02:06:15;3.07;;;1.80;;
37309;SDS011;23195;47.744;7.358;2023-02-27T02:08:42;2.57;;;1.60;;
37309;SDS011;23195;47.744;7.358;2023-02-27T02:11:11;2.33;;;2.10;;
37309;SDS011;23195;47.744;7.358;2023-02-27T02:13:39;2.93;;;1.70;;
37309;SDS011;23195;47.744;7.358;2023-02-27T02:16:11;2.00;;;1.80;;
37309;SDS011;23195;47.744;7.358;2023-02-27T02:36:36;3.70;;;2.00;;
37309;SDS011;23195;47.744;7.358;2023-02-27T02:42:03;5.00;;;2.20;;
37309;SDS011;23195;47.744;7.358;2023-02-27T02:47:40;3.83;;;1.90;;
37309;SDS011;23195;47.744;7.358;2023-02-27T02:55:58;3.70;;;1.90;;
37309;SDS011;23195;47.744;7.358;2023-02-27T03:01:10;4.00;;;1.77;;
37309;SDS011;23195;47.744;7.358;2023-02-27T03:03:46;2.70;;;1.80;;
37309;SDS011;23195;47.744;7.358;2023-02-27T03:06:20;3.40;;;1.87;;
37309;SDS011;23195;47.744;7.358;2023-02-27T03:08:57;3.17;;;2.00;;
37309;SDS011;23195;47.744;7.358;2023-02-27T03:11:27;3.20;;;2.10;;
37309;SDS011;23195;47.744;7.358;2023-02-27T03:14:02;6.80;;;2.20;;
37309;SDS011;23195;47.744;7.358;2023-02-27T03:16:36;2.87;;;2.10;;
37309;SDS011;23195;47.744;7.358;2023-02-27T03:19:11;3.80;;;2.23;;
37309;SDS011;23195;47.744;7.358;2023-02-27T03:21:43;3.97;;;2.10;;
37309;SDS011;23195;47.744;7.358;2023-02-27T03:24:18;3.10;;;2.17;;
37309;SDS011;23195;47.744;7.358;2023-02-27T03:26:50;3.93;;;2.10;;
37309;SDS011;23195;47.744;7.358;2023-02-27T03:32:17;4.20;;;2.13;;
37309;SDS011;23195;47.744;7.358;2023-02-27T03:34:53;2.87;;;1.90;;
37309;SDS011;23195;47.744;7.358;2023-02-27T03:40:03;3.57;;;2.00;;
37309;SDS011;23195;47.744;7.358;2023-02-27T03:42:45;2.87;;;1.70;;
37309;SDS011;23195;47.744;7.358;2023-02-27T03:45:33;4.47;;;2.13;;
37309;SDS011;23195;47.744;7.358;2023-02-27T03:48:18;5.50;;;2.60;;
37309;SDS011;23195;47.744;7.358;2023-02-27T03:50:44;3.27;;;2.20;;
37309;SDS011;23195;47.744;7.358;2023-02-27T03:53:19;3.23;;;2.30;;
37309;SDS011;23195;47.744;7.358;2023-02-27T03:56:21;3.70;;;2.17;;
37309;SDS011;23195;47.744;7.358;2023-02-27T03:58:53;3.80;;;2.10;;
37309;SDS011;23195;47.744;7.358;2023-02-27T04:01:19;4.70;;;2.10;;
37309;SDS011;23195;47.744;7.358;2023-02-27T04:03:48;3.50;;;2.00;;
37309;SDS011;23195;47.744;7.358;2023-02-27T04:06:19;3.43;;;1.90;;
37309;SDS011;23195;47.744;7.358;2023-02-27T04:09:16;3.43;;;2.03;;
37309;SDS011;23195;47.744;7.358;2023-02-27T04:17:47;3.43;;;1.80;;
37309;SDS011;23195;47.744;7.358;2023-02-27T04:20:38;4.23;;;2.60;;
37309;SDS011;23195;47.744;7.358;2023-02-27T04:28:39;4.37;;;2.20;;
37309;SDS011;23195;47.744;7.358;2023-02-27T04:31:19;3.27;;;2.27;;
37309;SDS011;23195;47.744;7.358;2023-02-27T04:34:09;3.70;;;1.80;;
37309;SDS011;23195;47.744;7.358;2023-02-27T04:36:48;4.20;;;2.20;;
37309;SDS011;23195;47.744;7.358;2023-02-27T04:39:23;3.70;;;2.17;;
37309;SDS011;23195;47.744;7.358;2023-02-27T04:41:59;5.17;;;2.50;;
37309;SDS011;23195;47.744;7.358;2023-02-27T04:44:32;5.03;;;2.40;;
37309;SDS011;23195;47.744;7.358;2023-02-27T04:47:00;4.00;;;2.53;;
37309;SDS011;23195;47.744;7.358;2023-02-27T04:49:34;3.47;;;2.30;;
37309;SDS011;23195;47.744;7.358;2023-02-27T04:52:08;3.10;;;2.13;;
37309;SDS011;23195;47.744;7.358;2023-02-27T04:55:12;3.37;;;2.30;;
37309;SDS011;23195;47.744;7.358;2023-02-27T04:57:45;5.20;;;2.60;;
37309;SDS011;23195;47.744;7.358;2023-02-27T05:00:26;3.40;;;2.50;;
37309;SDS011;23195;47.744;7.358;2023-02-27T05:02:55;4.83;;;2.47;;
37309;SDS011;23195;47.744;7.358;2023-02-27T05:05:25;4.50;;;2.63;;
37309;SDS011;23195;47.744;7.358;2023-02-27T05:08:03;4.17;;;2.60;;
37309;SDS011;23195;47.744;7.358;2023-02-27T05:10:35;3.53;;;2.70;;
37309;SDS011;23195;47.744;7.358;2023-02-27T05:13:20;4.80;;;2.33;;
37309;SDS011;23195;47.744;7.358;2023-02-27T05:15:53;4.57;;;2.73;;
37309;SDS011;23195;47.744;7.358;2023-02-27T05:18:44;5.90;;;2.57;;
37309;SDS011;23195;47.744;7.358;2023-02-27T05:21:22;5.13;;;2.60;;
37309;SDS011;23195;47.744;7.358;2023-02-27T05:32:06;5.13;;;3.00;;
37309;SDS011;23195;47.744;7.358;2023-02-27T05:37:41;3.63;;;2.53;;
37309;SDS011;23195;47.744;7.358;2023-02-27T05:40:11;6.10;;;2.60;;
37309;SDS011;23195;47.744;7.358;2023-02-27T05:42:42;4.67;;;2.27;;
37309;SDS011;23195;47.744;7.358;2023-02-27T05:45:21;6.13;;;3.43;;
37309;SDS011;23195;47.744;7.358;2023-02-27T05:47:55;7.77;;;3.20;;
37309;SDS011;23195;47.744;7.358;2023-02-27T05:50:25;5.50;;;2.67;;
37309;SDS011;23195;47.744;7.358;2023-02-27T05:52:56;8.37;;;2.90;;
37309;SDS011;23195;47.744;7.358;2023-02-27T06:00:49;7.30;;;3.23;;
37309;SDS011;23195;47.744;7.358;2023-02-27T06:03:24;5.67;;;2.97;;
37309;SDS011;23195;47.744;7.358;2023-02-27T06:05:51;6.17;;;3.20;;
37309;SDS011;23195;47.744;7.358;2023-02-27T06:08:18;6.77;;;3.47;;
37309;SDS011;23195;47.744;7.358;2023-02-27T06:10:44;5.50;;;3.50;;
37309;SDS011;23195;47.744;7.358;2023-02-27T06:13:10;7.33;;;3.30;;
37309;SDS011;23195;47.744;7.358;2023-02-27T06:15:39;5.90;;;3.00;;
37309;SDS011;23195;47.744;7.358;2023-02-27T06:18:05;7.33;;;3.50;;
37309;SDS011;23195;47.744;7.358;2023-02-27T06:20:30;7.57;;;3.67;;
37309;SDS011;23195;47.744;7.358;2023-02-27T06:22:56;5.63;;;3.03;;
37309;SDS011;23195;47.744;7.358;2023-02-27T06:25:22;6.60;;;3.07;;
37309;SDS011;23195;47.744;7.358;2023-02-27T06:27:48;4.47;;;3.00;;
37309;SDS011;23195;47.744;7.358;2023-02-27T06:30:14;6.57;;;3.47;;
37309;SDS011;23195;47.744;7.358;2023-02-27T06:32:40;9.57;;;3.83;;
37309;SDS011;23195;47.744;7.358;2023-02-27T06:35:06;5.07;;;3.43;;
37309;SDS011;23195;47.744;7.358;2023-02-27T06:37:32;7.70;;;3.93;;
37309;SDS011;23195;47.744;7.358;2023-02-27T06:39:58;6.67;;;3.40;;
37309;SDS011;23195;47.744;7.358;2023-02-27T06:42:24;8.80;;;3.60;;
37309;SDS011;23195;47.744;7.358;2023-02-27T06:44:50;8.63;;;5.20;;
37309;SDS011;23195;47.744;7.358;2023-02-27T06:47:16;5.87;;;3.50;;
37309;SDS011;23195;47.744;7.358;2023-02-27T06:49:42;7.23;;;3.50;;
37309;SDS011;23195;47.744;7.358;2023-02-27T06:52:08;4.60;;;3.00;;
37309;SDS011;23195;47.744;7.358;2023-02-27T06:54:34;7.50;;;3.67;;
37309;SDS011;23195;47.744;7.358;2023-02-27T06:56:59;9.33;;;3.80;;
37309;SDS011;23195;47.744;7.358;2023-02-27T06:59:25;5.33;;;3.27;;
37309;SDS011;23195;47.744;7.358;2023-02-27T07:01:51;5.57;;;3.60;;
37309;SDS011;23195;47.744;7.358;2023-02-27T07:04:20;4.23;;;3.30;;
37309;SDS011;23195;47.744;7.358;2023-02-27T07:07:01;10.50;;;4.00;;
37309;SDS011;23195;47.744;7.358;2023-02-27T07:09:27;12.53;;;4.53;;
37309;SDS011;23195;47.744;7.358;2023-02-27T07:12:03;7.47;;;3.83;;
37309;SDS011;23195;47.744;7.358;2023-02-27T07:14:49;7.80;;;4.37;;
37309;SDS011;23195;47.744;7.358;2023-02-27T07:17:25;6.47;;;3.47;;
37309;SDS011;23195;47.744;7.358;2023-02-27T07:20:16;8.23;;;3.63;;
37309;SDS011;23195;47.744;7.358;2023-02-27T07:22:45;5.93;;;3.60;;
37309;SDS011;23195;47.744;7.358;2023-02-27T07:25:11;8.70;;;4.57;;
37309;SDS011;23195;47.744;7.358;2023-02-27T07:27:39;11.03;;;3.90;;
37309;SDS011;23195;47.744;7.358;2023-02-27T07:30:14;7.63;;;3.90;;
37309;SDS011;23195;47.744;7.358;2023-02-27T07:33:05;10.47;;;3.77;;
37309;SDS011;23195;47.744;7.358;2023-02-27T07:35:31;10.07;;;4.30;;
37309;SDS011;23195;47.744;7.358;2023-02-27T07:37:57;8.00;;;3.90;;
37309;SDS011;23195;47.744;7.358;2023-02-27T07:40:25;9.80;;;4.27;;
37309;SDS011;23195;47.744;7.358;2023-02-27T07:42:51;14.60;;;7.13;;
37309;SDS011;23195;47.744;7.358;2023-02-27T07:45:17;7.30;;;3.70;;
37309;SDS011;23195;47.744;7.358;2023-02-27T07:47:43;7.43;;;4.53;;
37309;SDS011;23195;47.744;7.358;2023-02-27T07:50:10;7.43;;;3.80;;
37309;SDS011;23195;47.744;7.358;2023-02-27T07:52:41;8.87;;;3.23;;
37309;SDS011;23195;47.744;7.358;2023-02-27T07:55:08;7.97;;;3.63;;
37309;SDS011;23195;47.744;7.358;2023-02-27T07:57:35;7.37;;;3.57;;
37309;SDS011;23195;47.744;7.358;2023-02-27T08:00:01;6.40;;;3.63;;
37309;SDS011;23195;47.744;7.358;2023-02-27T08:02:31;6.60;;;3.50;;
37309;SDS011;23195;47.744;7.358;2023-02-27T08:04:57;7.83;;;3.63;;
37309;SDS011;23195;47.744;7.358;2023-02-27T08:07:23;6.83;;;3.67;;
37309;SDS011;23195;47.744;7.358;2023-02-27T08:09:51;6.07;;;3.70;;
37309;SDS011;23195;47.744;7.358;2023-02-27T08:12:17;8.17;;;3.40;;
37309;SDS011;23195;47.744;7.358;2023-02-27T08:14:44;7.30;;;3.97;;
37309;SDS011;23195;47.744;7.358;2023-02-27T08:17:10;8.87;;;3.87;;
37309;SDS011;23195;47.744;7.358;2023-02-27T08:19:36;6.33;;;3.93;;
37309;SDS011;23195;47.744;7.358;2023-02-27T08:22:02;7.03;;;3.93;;
37309;SDS011;23195;47.744;7.358;2023-02-27T08:24:27;11.37;;;4.00;;
37309;SDS011;23195;47.744;7.358;2023-02-27T08:26:53;7.00;;;3.90;;
37309;SDS011;23195;47.744;7.358;2023-02-27T08:29:19;7.13;;;3.83;;
37309;SDS011;23195;47.744;7.358;2023-02-27T08:31:45;8.27;;;3.97;;
37309;SDS011;23195;47.744;7.358;2023-02-27T08:34:11;7.17;;;4.07;;
37309;SDS011;23195;47.744;7.358;2023-02-27T08:36:38;6.70;;;3.97;;
37309;SDS011;23195;47.744;7.358;2023-02-27T08:39:07;6.80;;;3.67;;
37309;SDS011;23195;47.744;7.358;2023-02-27T08:41:34;5.30;;;3.80;;
37309;SDS011;23195;47.744;7.358;2023-02-27T08:44:02;6.63;;;3.90;;
37309;SDS011;23195;47.744;7.358;2023-02-27T08:46:28;6.87;;;4.07;;
37309;SDS011;23195;47.744;7.358;2023-02-27T08:48:55;5.93;;;4.10;;
37309;SDS011;23195;47.744;7.358;2023-02-27T08:51:21;6.90;;;4.10;;
37309;SDS011;23195;47.744;7.358;2023-02-27T08:53:47;5.63;;;4.17;;
37309;SDS011;23195;47.744;7.358;2023-02-27T08:56:16;8.17;;;4.40;;
37309;SDS011;23195;47.744;7.358;2023-02-27T08:58:42;8.63;;;4.10;;
37309;SDS011;23195;47.744;7.358;2023-02-27T09:01:08;7.57;;;3.67;;
37309;SDS011;23195;47.744;7.358;2023-02-27T09:03:34;5.90;;;3.87;;
37309;SDS011;23195;47.744;7.358;2023-02-27T09:06:01;6.10;;;4.00;;
37309;SDS011;23195;47.744;7.358;2023-02-27T09:08:30;9.47;;;4.10;;
37309;SDS011;23195;47.744;7.358;2023-02-27T09:10:56;10.63;;;4.33;;
37309;SDS011;23195;47.744;7.358;2023-02-27T09:13:22;8.03;;;3.83;;
37309;SDS011;23195;47.744;7.358;2023-02-27T09:15:48;9.50;;;4.27;;
37309;SDS011;23195;47.744;7.358;2023-02-27T09:18:15;6.73;;;3.63;;
37309;SDS011;23195;47.744;7.358;2023-02-27T09:20:40;9.23;;;4.13;;
37309;SDS011;23195;47.744;7.358;2023-02-27T09:23:06;8.43;;;3.80;;
37309;SDS011;23195;47.744;7.358;2023-02-27T09:25:32;7.40;;;3.43;;
37309;SDS011;23195;47.744;7.358;2023-02-27T09:27:58;5.90;;;3.60;;
37309;SDS011;23195;47.744;7.358;2023-02-27T09:30:24;7.43;;;3.63;;
37309;SDS011;23195;47.744;7.358;2023-02-27T09:32:50;5.37;;;3.80;;
37309;SDS011;23195;47.744;7.358;2023-02-27T09:35:16;7.33;;;3.87;;
37309;SDS011;23195;47.744;7.358;2023-02-27T09:37:44;5.67;;;3.43;;
37309;SDS011;23195;47.744;7.358;2023-02-27T09:40:30;5.30;;;3.20;;
37309;SDS011;23195;47.744;7.358;2023-02-27T09:43:06;8.43;;;3.70;;
37309;SDS011;23195;47.744;7.358;2023-02-27T09:45:42;5.27;;;3.60;;
37309;SDS011;23195;47.744;7.358;2023-02-27T09:50:44;4.93;;;3.57;;
37309;SDS011;23195;47.744;7.358;2023-02-27T09:53:14;6.63;;;3.90;;
37309;SDS011;23195;47.744;7.358;2023-02-27T09:58:48;6.07;;;4.00;;
37309;SDS011;23195;47.744;7.358;2023-02-27T10:04:05;7.10;;;3.77;;
37309;SDS011;23195;47.744;7.358;2023-02-27T10:17:50;34.70;;;12.27;;
37309;SDS011;23195;47.744;7.358;2023-02-27T10:20:52;7.47;;;3.77;;
37309;SDS011;23195;47.744;7.358;2023-02-27T10:23:41;5.30;;;3.27;;
37309;SDS011;23195;47.744;7.358;2023-02-27T10:26:24;8.77;;;3.60;;
37309;SDS011;23195;47.744;7.358;2023-02-27T10:28:54;6.90;;;3.63;;
37309;SDS011;23195;47.744;7.358;2023-02-27T10:31:30;4.50;;;2.93;;
37309;SDS011;23195;47.744;7.358;2023-02-27T10:34:00;6.10;;;3.53;;
37309;SDS011;23195;47.744;7.358;2023-02-27T10:36:26;6.47;;;3.30;;
37309;SDS011;23195;47.744;7.358;2023-02-27T10:38:54;6.87;;;3.23;;
37309;SDS011;23195;47.744;7.358;2023-02-27T10:41:24;5.07;;;2.90;;
37309;SDS011;23195;47.744;7.358;2023-02-27T10:43:57;4.83;;;2.97;;
37309;SDS011;23195;47.744;7.358;2023-02-27T10:46:25;4.43;;;2.80;;
37309;SDS011;23195;47.744;7.358;2023-02-27T10:48:59;3.47;;;2.90;;
37309;SDS011;23195;47.744;7.358;2023-02-27T10:51:33;4.77;;;3.10;;
37309;SDS011;23195;47.744;7.358;2023-02-27T10:54:20;4.43;;;2.93;;
37309;SDS011;23195;47.744;7.358;2023-02-27T10:56:54;5.33;;;3.10;;
37309;SDS011;23195;47.744;7.358;2023-02-27T10:59:27;4.60;;;2.80;;
37309;SDS011;23195;47.744;7.358;2023-02-27T11:04:48;3.53;;;2.83;;
37309;SDS011;23195;47.744;7.358;2023-02-27T11:07:24;6.17;;;3.57;;
37309;SDS011;23195;47.744;7.358;2023-02-27T11:10:26;4.47;;;3.07;;
37309;SDS011;23195;47.744;7.358;2023-02-27T11:13:25;5.83;;;3.80;;
37309;SDS011;23195;47.744;7.358;2023-02-27T11:16:09;7.00;;;3.00;;
37309;SDS011;23195;47.744;7.358;2023-02-27T11:18:36;4.97;;;2.77;;
37309;SDS011;23195;47.744;7.358;2023-02-27T11:29:11;3.53;;;2.40;;
37309;SDS011;23195;47.744;7.358;2023-02-27T11:31:43;5.33;;;2.80;;
37309;SDS011;23195;47.744;7.358;2023-02-27T11:34:16;4.97;;;3.47;;
37309;SDS011;23195;47.744;7.358;2023-02-27T11:36:49;6.30;;;2.70;;
37309;SDS011;23195;47.744;7.358;2023-02-27T11:39:26;5.83;;;3.07;;
37309;SDS011;23195;47.744;7.358;2023-02-27T11:41:54;4.27;;;2.97;;
37309;SDS011;23195;47.744;7.358;2023-02-27T11:44:27;4.53;;;2.90;;
37309;SDS011;23195;47.744;7.358;2023-02-27T11:55:18;4.87;;;2.67;;
37309;SDS011;23195;47.744;7.358;2023-02-27T11:57:48;4.17;;;2.77;;
37309;SDS011;23195;47.744;7.358;2023-02-27T12:00:26;3.40;;;2.53;;
37309;SDS011;23195;47.744;7.358;2023-02-27T12:03:21;4.77;;;2.90;;
37309;SDS011;23195;47.744;7.358;2023-02-27T12:05:56;3.83;;;2.80;;
37309;SDS011;23195;47.744;7.358;2023-02-27T12:08:35;3.63;;;3.00;;
37309;SDS011;23195;47.744;7.358;2023-02-27T12:11:55;4.83;;;2.80;;
37309;SDS011;23195;47.744;7.358;2023-02-27T12:14:10;8.00;;;2.97;;
37309;SDS011;23195;47.744;7.358;2023-02-27T12:16:50;6.60;;;3.40;;
37309;SDS011;23195;47.744;7.358;2023-02-27T12:19:30;5.13;;;3.23;;
37309;SDS011;23195;47.744;7.358;2023-02-27T12:22:12;7.37;;;3.77;;
37309;SDS011;23195;47.744;7.358;2023-02-27T12:24:48;7.57;;;3.67;;
37309;SDS011;23195;47.744;7.358;2023-02-27T12:27:23;5.57;;;2.77;;
37309;SDS011;23195;47.744;7.358;2023-02-27T12:30:12;4.80;;;3.20;;
37309;SDS011;23195;47.744;7.358;2023-02-27T12:32:44;8.47;;;3.77;;
37309;SDS011;23195;47.744;7.358;2023-02-27T12:35:31;6.73;;;3.00;;
37309;SDS011;23195;47.744;7.358;2023-02-27T12:37:58;5.37;;;2.80;;
37309;SDS011;23195;47.744;7.358;2023-02-27T12:43:48;6.80;;;3.23;;
37309;SDS011;23195;47.744;7.358;2023-02-27T12:46:31;8.10;;;3.23;;
37309;SDS011;23195;47.744;7.358;2023-02-27T12:54:52;6.30;;;3.30;;
37309;SDS011;23195;47.744;7.358;2023-02-27T13:00:02;5.47;;;3.50;;
37309;SDS011;23195;47.744;7.358;2023-02-27T13:05:38;6.30;;;3.80;;
37309;SDS011;23195;47.744;7.358;2023-02-27T13:08:37;6.93;;;2.70;;
37309;SDS011;23195;47.744;7.358;2023-02-27T13:15:18;4.07;;;2.97;;
37309;SDS011;23195;47.744;7.358;2023-02-27T13:25:22;7.00;;;3.23;;
37309;SDS011;23195;47.744;7.358;2023-02-27T13:28:05;4.23;;;2.80;;
37309;SDS011;23195;47.744;7.358;2023-02-27T13:30:38;3.77;;;3.00;;
37309;SDS011;23195;47.744;7.358;2023-02-27T13:36:26;3.57;;;2.57;;
37309;SDS011;23195;47.744;7.358;2023-02-27T13:39:00;4.10;;;2.97;;
37309;SDS011;23195;47.744;7.358;2023-02-27T13:46:39;4.27;;;2.90;;
37309;SDS011;23195;47.744;7.358;2023-02-27T13:56:46;4.27;;;3.07;;
37309;SDS011;23195;47.744;7.358;2023-02-27T13:59:38;5.97;;;2.57;;
37309;SDS011;23195;47.744;7.358;2023-02-27T14:02:32;5.07;;;3.57;;
37309;SDS011;23195;47.744;7.358;2023-02-27T14:05:12;5.03;;;3.10;;
37309;SDS011;23195;47.744;7.358;2023-02-27T14:07:51;4.37;;;2.90;;
37309;SDS011;23195;47.744;7.358;2023-02-27T14:10:49;4.10;;;2.93;;
37309;SDS011;23195;47.744;7.358;2023-02-27T14:16:10;4.57;;;2.70;;
37309;SDS011;23195;47.744;7.358;2023-02-27T14:18:57;3.43;;;2.73;;
37309;SDS011;23195;47.744;7.358;2023-02-27T14:24:53;5.27;;;2.90;;
37309;SDS011;23195;47.744;7.358;2023-02-27T14:27:26;5.47;;;2.77;;
37309;SDS011;23195;47.744;7.358;2023-02-27T14:30:27;5.40;;;3.30;;
37309;SDS011;23195;47.744;7.358;2023-02-27T14:33:12;4.90;;;3.27;;
37309;SDS011;23195;47.744;7.358;2023-02-27T14:35:38;6.00;;;3.57;;
37309;SDS011;23195;47.744;7.358;2023-02-27T14:38:10;4.60;;;3.13;;
37309;SDS011;23195;47.744;7.358;2023-02-27T14:43:39;3.97;;;3.03;;
37309;SDS011;23195;47.744;7.358;2023-02-27T14:46:11;4.73;;;3.23;;
37309;SDS011;23195;47.744;7.358;2023-02-27T14:49:00;4.67;;;3.20;;
37309;SDS011;23195;47.744;7.358;2023-02-27T14:51:29;3.87;;;3.10;;
37309;SDS011;23195;47.744;7.358;2023-02-27T14:56:37;4.63;;;3.47;;
37309;SDS011;23195;47.744;7.358;2023-02-27T14:59:18;4.83;;;3.07;;
37309;SDS011;23195;47.744;7.358;2023-02-27T15:01:56;6.53;;;3.67;;
37309;SDS011;23195;47.744;7.358;2023-02-27T15:04:26;5.97;;;3.40;;
37309;SDS011;23195;47.744;7.358;2023-02-27T15:06:54;4.57;;;3.90;;
37309;SDS011;23195;47.744;7.358;2023-02-27T15:12:14;6.00;;;3.30;;
37309;SDS011;23195;47.744;7.358;2023-02-27T15:14:45;6.30;;;3.10;;
37309;SDS011;23195;47.744;7.358;2023-02-27T15:17:18;5.07;;;2.90;;
37309;SDS011;23195;47.744;7.358;2023-02-27T15:19:49;6.80;;;3.10;;
37309;SDS011;23195;47.744;7.358;2023-02-27T15:22:24;5.97;;;3.63;;
37309;SDS011;23195;47.744;7.358;2023-02-27T15:24:55;4.60;;;3.37;;
37309;SDS011;23195;47.744;7.358;2023-02-27T15:27:24;7.00;;;4.03;;
37309;SDS011;23195;47.744;7.358;2023-02-27T15:29:54;8.63;;;5.40;;
37309;SDS011;23195;47.744;7.358;2023-02-27T15:32:29;7.90;;;4.50;;
37309;SDS011;23195;47.744;7.358;2023-02-27T15:34:57;6.77;;;4.60;;
37309;SDS011;23195;47.744;7.358;2023-02-27T15:37:27;9.57;;;4.30;;
37309;SDS011;23195;47.744;7.358;2023-02-27T15:39:55;6.47;;;3.57;;
37309;SDS011;23195;47.744;7.358;2023-02-27T15:42:24;6.03;;;3.70;;
37309;SDS011;23195;47.744;7.358;2023-02-27T15:45:01;6.07;;;3.50;;
37309;SDS011;23195;47.744;7.358;2023-02-27T15:47:32;5.53;;;2.73;;
37309;SDS011;23195;47.744;7.358;2023-02-27T15:52:25;5.63;;;3.67;;
37309;SDS011;23195;47.744;7.358;2023-02-27T15:55:00;4.50;;;3.30;;
37309;SDS011;23195;47.744;7.358;2023-02-27T15:57:30;5.30;;;3.27;;
37309;SDS011;23195;47.744;7.358;2023-02-27T16:00:00;5.03;;;3.10;;
37309;SDS011;23195;47.744;7.358;2023-02-27T16:02:27;6.67;;;3.10;;
37309;SDS011;23195;47.744;7.358;2023-02-27T16:04:57;5.40;;;3.60;;
37309;SDS011;23195;47.744;7.358;2023-02-27T16:07:24;4.97;;;2.93;;
37309;SDS011;23195;47.744;7.358;2023-02-27T16:09:55;5.20;;;3.40;;
37309;SDS011;23195;47.744;7.358;2023-02-27T16:20:36;5.77;;;3.60;;
37309;SDS011;23195;47.744;7.358;2023-02-27T16:25:59;5.03;;;3.10;;
37309;SDS011;23195;47.744;7.358;2023-02-27T16:28:28;4.97;;;3.80;;
37309;SDS011;23195;47.744;7.358;2023-02-27T16:30:55;5.20;;;3.40;;
37309;SDS011;23195;47.744;7.358;2023-02-27T16:33:29;5.53;;;3.27;;
37309;SDS011;23195;47.744;7.358;2023-02-27T16:36:13;8.07;;;5.27;;
37309;SDS011;23195;47.744;7.358;2023-02-27T16:38:43;4.57;;;3.33;;
37309;SDS011;23195;47.744;7.358;2023-02-27T16:44:10;5.90;;;3.87;;
37309;SDS011;23195;47.744;7.358;2023-02-27T16:46:36;3.97;;;3.13;;
37309;SDS011;23195;47.744;7.358;2023-02-27T16:49:01;10.40;;;6.37;;
37309;SDS011;23195;47.744;7.358;2023-02-27T16:51:28;6.50;;;4.23;;
37309;SDS011;23195;47.744;7.358;2023-02-27T16:53:58;5.37;;;3.80;;
37309;SDS011;23195;47.744;7.358;2023-02-27T16:56:25;5.47;;;3.73;;
37309;SDS011;23195;47.744;7.358;2023-02-27T16:58:52;5.70;;;3.70;;
37309;SDS011;23195;47.744;7.358;2023-02-27T17:01:21;7.70;;;3.77;;
37309;SDS011;23195;47.744;7.358;2023-02-27T17:03:47;8.00;;;3.87;;
37309;SDS011;23195;47.744;7.358;2023-02-27T17:06:13;6.63;;;3.93;;
37309;SDS011;23195;47.744;7.358;2023-02-27T17:08:42;6.43;;;4.20;;
37309;SDS011;23195;47.744;7.358;2023-02-27T17:11:21;7.30;;;4.27;;
37309;SDS011;23195;47.744;7.358;2023-02-27T17:13:54;6.40;;;3.80;;
37309;SDS011;23195;47.744;7.358;2023-02-27T17:16:29;5.67;;;3.80;;
37309;SDS011;23195;47.744;7.358;2023-02-27T17:18:54;5.53;;;3.90;;
37309;SDS011;23195;47.744;7.358;2023-02-27T17:21:23;5.10;;;3.40;;
37309;SDS011;23195;47.744;7.358;2023-02-27T17:23:49;5.03;;;3.63;;
37309;SDS011;23195;47.744;7.358;2023-02-27T17:26:15;7.57;;;3.70;;
37309;SDS011;23195;47.744;7.358;2023-02-27T17:28:44;8.80;;;4.30;;
37309;SDS011;23195;47.744;7.358;2023-02-27T17:31:16;29.03;;;9.20;;
37309;SDS011;23195;47.744;7.358;2023-02-27T17:33:47;8.07;;;5.07;;
37309;SDS011;23195;47.744;7.358;2023-02-27T17:36:14;5.77;;;3.40;;
37309;SDS011;23195;47.744;7.358;2023-02-27T17:38:41;10.07;;;4.00;;
37309;SDS011;23195;47.744;7.358;2023-02-27T17:41:10;7.17;;;4.50;;
37309;SDS011;23195;47.744;7.358;2023-02-27T17:43:37;7.37;;;3.90;;
37309;SDS011;23195;47.744;7.358;2023-02-27T17:46:04;6.23;;;3.77;;
37309;SDS011;23195;47.744;7.358;2023-02-27T17:48:31;6.97;;;4.10;;
37309;SDS011;23195;47.744;7.358;2023-02-27T17:51:07;5.43;;;3.40;;
37309;SDS011;23195;47.744;7.358;2023-02-27T17:53:34;6.13;;;3.60;;
37309;SDS011;23195;47.744;7.358;2023-02-27T17:56:01;5.73;;;3.07;;
37309;SDS011;23195;47.744;7.358;2023-02-27T17:58:29;6.93;;;4.10;;
37309;SDS011;23195;47.744;7.358;2023-02-27T18:01:06;4.00;;;3.27;;
37309;SDS011;23195;47.744;7.358;2023-02-27T18:03:33;4.77;;;3.37;;
37309;SDS011;23195;47.744;7.358;2023-02-27T18:05:59;5.77;;;3.43;;
37309;SDS011;23195;47.744;7.358;2023-02-27T18:08:26;5.50;;;3.60;;
37309;SDS011;23195;47.744;7.358;2023-02-27T18:10:52;6.13;;;3.70;;
37309;SDS011;23195;47.744;7.358;2023-02-27T18:13:19;8.70;;;4.27;;
37309;SDS011;23195;47.744;7.358;2023-02-27T18:15:49;5.23;;;3.60;;